createdAt,value
2023-05-05T00:00:58.894Z,95886.78
2023-05-05T00:03:25.882Z,95895.69
2023-05-05T00:05:54.751Z,95884.25
2023-05-05T00:08:21.817Z,95889.13
2023-05-05T00:10:50.446Z,95887.25
2023-05-05T00:13:17.660Z,95889.66
2023-05-05T00:15:45.819Z,95883.81
2023-05-05T00:18:15.124Z,95884.41
2023-05-05T00:20:42.078Z,95876.81
2023-05-05T00:23:08.925Z,95874.88
2023-05-05T00:25:35.795Z,95872.84
2023-05-05T00:28:02.759Z,95871.66
2023-05-05T00:30:30.816Z,95874.81
2023-05-05T00:32:57.837Z,95873.97
2023-05-05T00:35:24.869Z,95873.97
2023-05-05T00:37:51.683Z,95873.16
2023-05-05T00:40:19.191Z,95878.34
2023-05-05T00:42:47.442Z,95872.66
2023-05-05T00:45:15.285Z,95878.41
2023-05-05T00:47:46.892Z,95881.19
2023-05-05T00:50:21.757Z,95862.63
2023-05-05T00:52:48.688Z,95874.44
2023-05-05T00:55:15.505Z,95875.75
2023-05-05T00:57:42.300Z,95875.38
2023-05-05T01:00:10.085Z,95874.81
2023-05-05T01:02:39.293Z,95875.31
2023-05-05T01:05:08.061Z,95875.88
2023-05-05T01:07:43.831Z,95876.44
2023-05-05T01:10:20.265Z,95868.88
2023-05-05T01:13:15.308Z,95865.34
2023-05-05T01:16:12.663Z,95863.44
2023-05-05T01:19:09.411Z,95859.59
2023-05-05T01:21:44.233Z,95860.59
2023-05-05T01:24:20.202Z,95865.28
2023-05-05T01:27:09.660Z,95855.31
2023-05-05T01:29:58.386Z,95864.09
2023-05-05T01:32:30.031Z,95860.88
2023-05-05T01:35:01.058Z,95865.53
2023-05-05T01:37:42.917Z,95860.38
2023-05-05T01:40:10.968Z,95856.81
2023-05-05T01:42:38.391Z,95857.66
2023-05-05T01:45:06.002Z,95866.34
2023-05-05T01:47:32.911Z,95866.03
2023-05-05T01:49:59.933Z,95866.53
2023-05-05T01:52:27.162Z,95865.16
2023-05-05T01:54:54.104Z,95868.06
2023-05-05T01:57:21.893Z,95873.34
2023-05-05T01:59:48.880Z,95876.31
2023-05-05T02:02:15.758Z,95869.50
2023-05-05T02:04:43.602Z,95869.50
2023-05-05T02:07:11.839Z,95859.78
2023-05-05T02:09:38.778Z,95861.19
2023-05-05T02:12:05.987Z,95870.94
2023-05-05T02:14:33.437Z,95867.69
2023-05-05T02:17:00.389Z,95858.56
2023-05-05T02:19:32.607Z,95870.91
2023-05-05T02:21:59.572Z,95870.06
2023-05-05T02:24:26.759Z,95876.00
2023-05-05T02:26:53.659Z,95872.63
2023-05-05T02:29:28.898Z,95872.25
2023-05-05T02:31:58.458Z,95867.00
2023-05-05T02:34:26.732Z,95879.50
2023-05-05T02:36:56.060Z,95878.72
2023-05-05T02:39:26.548Z,95878.00
2023-05-05T02:41:54.299Z,95870.69
2023-05-05T02:44:23.569Z,95863.88
2023-05-05T02:46:50.505Z,95867.16
2023-05-05T02:49:17.427Z,95863.88
2023-05-05T02:51:44.274Z,95861.47
2023-05-05T02:54:11.113Z,95869.13
2023-05-05T02:56:44.772Z,95873.97
2023-05-05T02:59:29.945Z,95875.34
2023-05-05T03:02:07.363Z,95865.69
2023-05-05T03:04:40.076Z,95862.88
2023-05-05T03:07:15.490Z,95863.19
2023-05-05T03:10:16.335Z,95860.25
2023-05-05T03:12:54.044Z,95863.38
2023-05-05T03:15:26.645Z,95859.22
2023-05-05T03:17:54.119Z,95855.09
2023-05-05T03:20:21.106Z,95859.06
2023-05-05T03:22:48.100Z,95854.38
2023-05-05T03:25:15.139Z,95857.56
2023-05-05T03:27:42.108Z,95856.44
2023-05-05T03:30:10.514Z,95853.16
2023-05-05T03:32:37.824Z,95848.81
2023-05-05T03:35:05.283Z,95842.88
2023-05-05T03:37:32.239Z,95848.63
2023-05-05T03:39:59.046Z,95851.44
2023-05-05T03:42:26.001Z,95850.63
2023-05-05T03:44:53.907Z,95855.34
2023-05-05T03:47:20.745Z,95844.88
2023-05-05T03:49:47.994Z,95847.09
2023-05-05T03:52:15.214Z,95841.28
2023-05-05T03:54:43.211Z,95849.78
2023-05-05T03:57:10.165Z,95849.13
2023-05-05T03:59:37.064Z,95846.91
2023-05-05T04:02:03.985Z,95848.53
2023-05-05T04:04:31.175Z,95848.66
2023-05-05T04:06:58.236Z,95852.75
2023-05-05T04:09:25.171Z,95849.56
2023-05-05T04:11:51.996Z,95847.09
2023-05-05T04:14:18.977Z,95853.56
2023-05-05T04:16:46.033Z,95854.06
2023-05-05T04:19:13.446Z,95846.16
2023-05-05T04:21:40.524Z,95847.66
2023-05-05T04:24:07.388Z,95839.44
2023-05-05T04:26:34.540Z,95847.34
2023-05-05T04:29:01.435Z,95849.78
2023-05-05T04:31:28.485Z,95852.88
2023-05-05T04:33:55.491Z,95849.66
2023-05-05T04:36:22.421Z,95843.63
2023-05-05T04:38:49.344Z,95852.00
2023-05-05T04:41:16.215Z,95845.03
2023-05-05T04:43:43.090Z,95851.41
2023-05-05T04:46:10.292Z,95854.59
2023-05-05T04:48:38.225Z,95851.91
2023-05-05T04:51:06.617Z,95845.16
2023-05-05T04:53:33.684Z,95864.19
2023-05-05T04:56:01.626Z,95863.44
2023-05-05T04:58:29.073Z,95860.09
2023-05-05T05:00:56.061Z,95865.00
2023-05-05T05:03:23.035Z,95862.84
2023-05-05T05:05:50.287Z,95876.47
2023-05-05T05:08:18.015Z,95872.38
2023-05-05T05:10:45.128Z,95865.59
2023-05-05T05:13:12.929Z,95866.31
2023-05-05T05:15:41.147Z,95867.97
2023-05-05T05:18:08.102Z,95864.63
2023-05-05T05:20:35.024Z,95865.97
2023-05-05T05:23:04.916Z,95867.25
2023-05-05T05:25:31.901Z,95873.28
2023-05-05T05:28:09.503Z,95875.91
2023-05-05T05:30:37.310Z,95878.75
2023-05-05T05:33:04.221Z,95879.84
2023-05-05T05:35:31.729Z,95874.41
2023-05-05T05:37:58.689Z,95872.59
2023-05-05T05:40:25.555Z,95875.44
2023-05-05T05:42:52.363Z,95879.28
2023-05-05T05:45:19.417Z,95875.88
2023-05-05T05:47:46.476Z,95889.13
2023-05-05T05:50:17.371Z,95883.50
2023-05-05T05:52:44.380Z,95884.56
2023-05-05T05:55:11.349Z,95878.00
2023-05-05T05:57:38.267Z,95882.81
2023-05-05T06:00:06.511Z,95887.47
2023-05-05T06:02:34.280Z,95889.75
2023-05-05T06:05:06.688Z,95886.66
2023-05-05T06:07:33.743Z,95884.44
2023-05-05T06:10:10.893Z,95892.53
2023-05-05T06:12:51.398Z,95886.28
2023-05-05T06:15:19.524Z,95894.56
2023-05-05T06:17:47.846Z,95888.72
2023-05-05T06:20:15.349Z,95894.91
2023-05-05T06:22:42.296Z,95886.28
2023-05-05T06:25:09.442Z,95893.94
2023-05-05T06:27:36.505Z,95888.88
2023-05-05T06:30:03.729Z,95884.50
2023-05-05T06:32:30.853Z,95891.81
2023-05-05T06:34:57.874Z,95883.78
2023-05-05T06:37:27.281Z,95886.00
2023-05-05T06:39:54.324Z,95893.63
2023-05-05T06:42:21.555Z,95889.34
2023-05-05T06:44:48.471Z,95890.16
2023-05-05T06:47:15.418Z,95884.09
2023-05-05T06:49:42.351Z,95893.28
2023-05-05T06:52:09.151Z,95889.59
2023-05-05T06:54:36.146Z,95885.06
2023-05-05T06:57:03.130Z,95884.38
2023-05-05T06:59:30.077Z,95876.88
2023-05-05T07:02:00.098Z,95881.63
2023-05-05T07:04:28.386Z,95880.13
2023-05-05T07:06:55.458Z,95872.84
2023-05-05T07:09:22.329Z,95876.31
2023-05-05T07:11:49.322Z,95868.47
2023-05-05T07:14:16.155Z,95871.03
2023-05-05T07:16:43.081Z,95868.44
2023-05-05T07:19:09.961Z,95864.69
2023-05-05T07:21:36.883Z,95858.78
2023-05-05T07:24:04.275Z,95863.72
2023-05-05T07:26:31.397Z,95865.09
2023-05-05T07:28:59.249Z,95861.75
2023-05-05T07:31:26.750Z,95849.38
2023-05-05T07:33:56.271Z,95855.91
2023-05-05T07:36:23.497Z,95867.00
2023-05-05T07:38:50.571Z,95867.63
2023-05-05T07:41:20.565Z,95871.94
2023-05-05T07:43:50.136Z,95864.91
2023-05-05T07:46:18.121Z,95861.09
2023-05-05T07:48:45.068Z,95854.81
2023-05-05T07:51:12.211Z,95863.56
2023-05-05T07:53:41.184Z,95861.75
2023-05-05T07:56:09.133Z,95851.22
2023-05-05T07:58:36.018Z,95846.47
2023-05-05T08:01:03.177Z,95853.19
2023-05-05T08:03:30.273Z,95848.44
2023-05-05T08:05:57.273Z,95844.19
2023-05-05T08:08:25.235Z,95855.13
2023-05-05T08:10:53.546Z,95844.94
2023-05-05T08:13:20.552Z,95840.06
2023-05-05T08:15:47.797Z,95842.91
2023-05-05T08:18:14.952Z,95845.38
2023-05-05T08:20:43.479Z,95837.56
2023-05-05T08:23:11.977Z,95841.97
2023-05-05T08:25:39.124Z,95841.25
2023-05-05T08:28:07.994Z,95840.41
2023-05-05T08:30:35.518Z,95840.78
2023-05-05T08:33:03.705Z,95832.25
2023-05-05T08:35:30.777Z,95832.00
2023-05-05T08:37:59.233Z,95831.72
2023-05-05T08:40:30.206Z,95824.97
2023-05-05T08:42:57.376Z,95824.78
2023-05-05T08:45:24.217Z,95824.63
2023-05-05T08:47:51.219Z,95827.19
2023-05-05T08:50:18.205Z,95825.31
2023-05-05T08:52:45.277Z,95813.09
2023-05-05T08:55:27.244Z,95804.41
2023-05-05T08:57:58.267Z,95800.47
2023-05-05T09:00:27.495Z,95808.63
2023-05-05T09:02:58.594Z,95812.53
2023-05-05T09:05:26.741Z,95800.53
2023-05-05T09:07:53.530Z,95807.34
2023-05-05T09:10:20.947Z,95801.03
2023-05-05T09:12:50.432Z,95796.53
2023-05-05T09:15:17.422Z,95803.03
2023-05-05T09:17:44.528Z,95806.13
2023-05-05T09:20:12.809Z,95794.94
2023-05-05T09:22:40.799Z,95798.75
2023-05-05T09:25:10.167Z,95789.78
2023-05-05T09:27:42.580Z,95786.28
2023-05-05T09:30:11.310Z,95779.13
2023-05-05T09:32:49.242Z,95784.25
2023-05-05T09:35:16.693Z,95771.81
2023-05-05T09:37:43.896Z,95780.09
2023-05-05T09:40:12.072Z,95772.09
2023-05-05T09:42:39.696Z,95771.16
2023-05-05T09:45:27.595Z,95769.91
2023-05-05T09:47:59.092Z,95755.81
2023-05-05T09:50:31.091Z,95766.66
2023-05-05T09:53:02.208Z,95750.00
2023-05-05T09:55:31.497Z,95760.38
2023-05-05T09:58:17.371Z,95756.97
2023-05-05T10:00:44.366Z,95754.25
2023-05-05T10:03:11.412Z,95746.53
2023-05-05T10:05:54.674Z,95746.38
2023-05-05T10:08:23.553Z,95743.34
2023-05-05T10:10:54.339Z,95746.38
2023-05-05T10:13:22.987Z,95743.25
2023-05-05T10:15:51.853Z,95740.41
2023-05-05T10:18:25.797Z,95730.66
2023-05-05T10:20:55.534Z,95734.91
2023-05-05T10:23:23.443Z,95729.13
2023-05-05T10:25:55.930Z,95736.19
2023-05-05T10:28:28.807Z,95731.47
2023-05-05T10:30:57.035Z,95726.53
2023-05-05T10:33:32.487Z,95721.34
2023-05-05T10:36:02.729Z,95714.88
2023-05-05T10:38:31.183Z,95718.00
2023-05-05T10:41:02.293Z,95715.13
2023-05-05T10:43:31.388Z,95708.94
2023-05-05T10:45:58.437Z,95707.47
2023-05-05T10:48:48.590Z,95706.41
2023-05-05T10:51:49.032Z,95700.13
2023-05-05T10:54:54.833Z,95700.31
2023-05-05T10:57:24.034Z,95689.41
2023-05-05T10:59:51.015Z,95685.31
2023-05-05T11:02:30.374Z,95682.91
2023-05-05T11:05:23.723Z,95675.19
2023-05-05T11:07:51.699Z,95668.91
2023-05-05T11:10:22.948Z,95672.81
2023-05-05T11:12:59.538Z,95658.72
2023-05-05T11:15:27.570Z,95661.97
2023-05-05T11:18:02.577Z,95659.41
2023-05-05T11:20:37.904Z,95660.56
2023-05-05T11:23:05.337Z,95656.53
2023-05-05T11:25:35.940Z,95646.66
2023-05-05T11:28:11.420Z,95655.88
2023-05-05T11:30:57.463Z,95645.06
2023-05-05T11:33:31.611Z,95648.34
2023-05-05T11:35:59.342Z,95638.97
2023-05-05T11:38:47.803Z,95642.81
2023-05-05T11:41:20.009Z,95632.25
2023-05-05T11:43:46.885Z,95632.91
2023-05-05T11:46:14.643Z,95631.34
2023-05-05T11:48:49.013Z,95630.94
2023-05-05T11:51:17.063Z,95627.09
2023-05-05T11:53:48.215Z,95628.31
2023-05-05T11:56:20.154Z,95623.81
2023-05-05T11:58:50.044Z,95612.34
2023-05-05T12:01:17.005Z,95624.31
2023-05-05T12:03:46.001Z,95622.16
2023-05-05T12:06:13.407Z,95619.00
2023-05-05T12:08:41.275Z,95630.03
2023-05-05T12:11:09.249Z,95620.59
2023-05-05T12:13:36.150Z,95616.59
2023-05-05T12:16:10.040Z,95617.91
2023-05-05T12:18:39.249Z,95614.09
2023-05-05T12:21:19.024Z,95623.31
2023-05-05T12:23:46.998Z,95604.38
2023-05-05T12:26:32.340Z,95607.25
2023-05-05T12:29:00.095Z,95604.75
2023-05-05T12:31:40.329Z,95600.19
2023-05-05T12:34:10.609Z,95593.91
2023-05-05T12:36:38.459Z,95598.13
2023-05-05T12:39:05.601Z,95588.81
2023-05-05T12:41:33.328Z,95583.25
2023-05-05T12:44:02.218Z,95595.91
2023-05-05T12:46:32.614Z,95593.66
2023-05-05T12:49:05.657Z,95595.34
2023-05-05T12:51:33.485Z,95595.00
2023-05-05T12:54:03.488Z,95586.31
2023-05-05T12:56:41.183Z,95587.81
2023-05-05T12:59:12.478Z,95581.19
2023-05-05T13:01:52.649Z,95572.69
2023-05-05T13:04:22.290Z,95564.59
2023-05-05T13:07:12.484Z,95556.81
2023-05-05T13:09:39.509Z,95546.50
2023-05-05T13:12:15.468Z,95548.81
2023-05-05T13:14:42.519Z,95548.31
2023-05-05T13:17:10.851Z,95544.59
2023-05-05T13:19:42.301Z,95546.41
2023-05-05T13:22:10.301Z,95550.69
2023-05-05T13:24:49.870Z,95555.84
2023-05-05T13:27:19.235Z,95548.97
2023-05-05T13:29:46.316Z,95546.06
2023-05-05T13:32:13.084Z,95550.69
2023-05-05T13:34:39.785Z,95543.78
2023-05-05T13:37:06.754Z,95544.91
2023-05-05T13:39:33.678Z,95543.44
2023-05-05T13:42:00.615Z,95534.78
2023-05-05T13:44:27.648Z,95541.06
2023-05-05T13:46:54.764Z,95537.69
2023-05-05T13:49:21.743Z,95541.25
2023-05-05T13:51:48.678Z,95537.94
2023-05-05T13:54:15.534Z,95536.63
2023-05-05T13:56:42.670Z,95527.97
2023-05-05T13:59:09.709Z,95532.69
2023-05-05T14:01:36.703Z,95527.84
2023-05-05T14:04:05.448Z,95528.75
2023-05-05T14:06:33.863Z,95538.78
2023-05-05T14:09:00.912Z,95534.25
2023-05-05T14:11:27.912Z,95532.44
2023-05-05T14:13:54.743Z,95532.53
2023-05-05T14:16:21.829Z,95534.19
2023-05-05T14:18:48.913Z,95535.28
2023-05-05T14:21:15.887Z,95534.19
2023-05-05T14:23:42.829Z,95537.19
2023-05-05T14:26:09.779Z,95544.78
2023-05-05T14:28:36.673Z,95542.38
2023-05-05T14:31:03.476Z,95552.16
2023-05-05T14:33:30.410Z,95552.16
2023-05-05T14:35:57.308Z,95553.38
2023-05-05T14:38:24.405Z,95561.66
2023-05-05T14:40:51.455Z,95553.03
2023-05-05T14:43:18.349Z,95567.97
2023-05-05T14:45:45.355Z,95564.84
2023-05-05T14:48:12.121Z,95571.06
2023-05-05T14:50:40.677Z,95573.13
2023-05-05T14:53:07.571Z,95580.03
2023-05-05T14:55:34.398Z,95577.72
2023-05-05T14:58:01.328Z,95573.06
2023-05-05T15:00:29.132Z,95575.72
2023-05-05T15:02:56.275Z,95578.13
2023-05-05T15:05:23.372Z,95583.31
2023-05-05T15:07:50.542Z,95570.06
2023-05-05T15:10:18.207Z,95572.81
2023-05-05T15:12:46.657Z,95574.16
2023-05-05T15:15:13.681Z,95576.91
2023-05-05T15:17:41.981Z,95579.88
2023-05-05T15:20:08.880Z,95578.00
2023-05-05T15:22:37.045Z,95576.50
2023-05-05T15:25:04.216Z,95578.84
2023-05-05T15:27:33.661Z,95582.56
2023-05-05T15:30:01.317Z,95584.63
2023-05-05T15:32:29.514Z,95580.94
2023-05-05T15:34:56.576Z,95589.09
2023-05-05T15:37:23.518Z,95575.59
2023-05-05T15:39:50.575Z,95574.28
2023-05-05T15:42:17.437Z,95583.31
2023-05-05T15:44:44.356Z,95585.13
2023-05-05T15:47:12.031Z,95595.16
2023-05-05T15:49:38.981Z,95597.34
2023-05-05T15:52:05.947Z,95607.41
2023-05-05T15:54:32.850Z,95603.03
2023-05-05T15:56:59.914Z,95605.22
2023-05-05T15:59:26.826Z,95596.31
2023-05-05T16:01:54.293Z,95600.91
2023-05-05T16:04:21.386Z,95606.13
2023-05-05T16:06:48.386Z,95592.16
2023-05-05T16:09:15.368Z,95606.34
2023-05-05T16:11:42.213Z,95612.19
2023-05-05T16:14:09.072Z,95611.25
2023-05-05T16:16:36.026Z,95617.03
2023-05-05T16:19:03.162Z,95620.16
2023-05-05T16:21:30.127Z,95630.13
2023-05-05T16:23:57.053Z,95623.97
2023-05-05T16:26:23.899Z,95626.41
2023-05-05T16:28:50.855Z,95619.34
2023-05-05T16:31:17.931Z,95612.16
2023-05-05T16:33:44.999Z,95617.34
2023-05-05T16:36:12.617Z,95618.69
2023-05-05T16:38:40.437Z,95618.19
2023-05-05T16:41:08.074Z,95613.53
2023-05-05T16:43:37.398Z,95621.75
2023-05-05T16:46:04.525Z,95626.69
2023-05-05T16:48:31.645Z,95627.56
2023-05-05T16:50:58.824Z,95630.03
2023-05-05T16:53:25.829Z,95632.81
2023-05-05T16:55:53.591Z,95638.53
2023-05-05T16:58:21.215Z,95642.94
2023-05-05T17:00:49.477Z,95640.00
2023-05-05T17:03:17.264Z,95636.09
2023-05-05T17:05:46.636Z,95634.59
2023-05-05T17:08:15.589Z,95631.97
2023-05-05T17:10:42.790Z,95643.47
2023-05-05T17:13:10.787Z,95644.94
2023-05-05T17:15:37.743Z,95639.63
2023-05-05T17:18:05.494Z,95654.50
2023-05-05T17:20:32.429Z,95646.06
2023-05-05T17:22:59.583Z,95647.38
2023-05-05T17:25:26.425Z,95654.97
2023-05-05T17:27:54.321Z,95653.16
2023-05-05T17:30:21.235Z,95659.47
2023-05-05T17:32:48.053Z,95659.59
2023-05-05T17:35:15.285Z,95650.81
2023-05-05T17:37:42.460Z,95650.09
2023-05-05T17:40:09.452Z,95651.06
2023-05-05T17:42:36.282Z,95652.50
2023-05-05T17:45:03.507Z,95649.06
2023-05-05T17:47:30.545Z,95651.47
2023-05-05T17:49:57.554Z,95654.22
2023-05-05T17:52:24.469Z,95645.59
2023-05-05T17:54:51.699Z,95647.97
2023-05-05T17:57:21.283Z,95653.72
2023-05-05T17:59:50.111Z,95657.44
2023-05-05T18:02:16.834Z,95661.00
2023-05-05T18:04:43.963Z,95670.66
2023-05-05T18:07:12.682Z,95677.00
2023-05-05T18:09:39.651Z,95670.78
2023-05-05T18:12:08.271Z,95672.97
2023-05-05T18:14:35.884Z,95675.69
2023-05-05T18:17:02.978Z,95672.97
2023-05-05T18:19:29.877Z,95685.38
2023-05-05T18:21:57.642Z,95689.69
2023-05-05T18:24:24.679Z,95686.81
2023-05-05T18:26:52.259Z,95693.91
2023-05-05T18:29:19.533Z,95699.56
2023-05-05T18:31:49.731Z,95695.22
2023-05-05T18:34:17.230Z,95704.91
2023-05-05T18:36:44.350Z,95702.78
2023-05-05T18:39:11.703Z,95702.88
2023-05-05T18:41:38.601Z,95696.75
2023-05-05T18:44:05.722Z,95700.16
2023-05-05T18:46:32.713Z,95701.06
2023-05-05T18:49:00.823Z,95701.66
2023-05-05T18:51:28.813Z,95712.63
2023-05-05T18:53:55.692Z,95713.44
2023-05-05T18:56:22.878Z,95713.81
2023-05-05T18:58:49.844Z,95710.13
2023-05-05T19:01:17.386Z,95714.63
2023-05-05T19:03:50.763Z,95713.69
2023-05-05T19:06:17.712Z,95714.44
2023-05-05T19:08:45.912Z,95724.06
2023-05-05T19:11:15.110Z,95726.38
2023-05-05T19:13:42.550Z,95732.75
2023-05-05T19:16:11.524Z,95724.53
2023-05-05T19:18:39.238Z,95729.25
2023-05-05T19:21:06.138Z,95734.84
2023-05-05T19:23:33.661Z,95737.72
2023-05-05T19:26:00.814Z,95737.25
2023-05-05T19:28:27.619Z,95728.81
2023-05-05T19:30:54.572Z,95731.91
2023-05-05T19:33:21.539Z,95730.25
2023-05-05T19:35:48.365Z,95737.06
2023-05-05T19:38:16.032Z,95739.56
2023-05-05T19:40:43.384Z,95744.59
2023-05-05T19:43:10.489Z,95736.13
2023-05-05T19:45:37.692Z,95736.13
2023-05-05T19:48:04.978Z,95729.84
2023-05-05T19:50:32.042Z,95739.97
2023-05-05T19:52:58.975Z,95741.63
2023-05-05T19:55:25.959Z,95748.81
2023-05-05T19:57:52.778Z,95745.72
2023-05-05T20:00:20.013Z,95747.97
2023-05-05T20:02:48.743Z,95748.31
2023-05-05T20:05:17.917Z,95751.31
2023-05-05T20:07:47.017Z,95742.03
2023-05-05T20:10:13.857Z,95735.75
2023-05-05T20:12:48.184Z,95732.19
2023-05-05T20:15:19.296Z,95740.69
2023-05-05T20:17:47.520Z,95744.75
2023-05-05T20:20:20.541Z,95739.88
2023-05-05T20:22:47.641Z,95734.66
2023-05-05T20:25:18.110Z,95747.03
2023-05-05T20:27:45.868Z,95746.66
2023-05-05T20:30:13.475Z,95758.72
2023-05-05T20:32:40.893Z,95750.59
2023-05-05T20:35:08.976Z,95751.72
2023-05-05T20:37:36.014Z,95749.56
2023-05-05T20:40:02.908Z,95754.50
2023-05-05T20:42:29.929Z,95750.69
2023-05-05T20:44:57.042Z,95746.06
2023-05-05T20:47:24.511Z,95745.25
2023-05-05T20:49:52.681Z,95741.16
2023-05-05T20:52:19.763Z,95739.25
2023-05-05T20:54:46.787Z,95744.19
2023-05-05T20:57:13.717Z,95748.00
2023-05-05T20:59:40.633Z,95751.03
2023-05-05T21:02:07.850Z,95751.81
2023-05-05T21:04:34.804Z,95750.69
2023-05-05T21:07:01.809Z,95750.13
2023-05-05T21:09:28.895Z,95752.91
2023-05-05T21:11:55.843Z,95747.75
2023-05-05T21:14:23.829Z,95752.44
2023-05-05T21:16:50.951Z,95751.94
2023-05-05T21:19:18.028Z,95745.44
2023-05-05T21:21:44.970Z,95753.63
2023-05-05T21:24:13.272Z,95747.59
2023-05-05T21:26:46.983Z,95738.88
2023-05-05T21:29:13.841Z,95736.69
2023-05-05T21:31:40.759Z,95739.19
2023-05-05T21:34:07.628Z,95731.84
2023-05-05T21:36:34.640Z,95747.66
2023-05-05T21:39:01.856Z,95738.91
2023-05-05T21:41:28.855Z,95744.97
2023-05-05T21:43:55.887Z,95746.63
2023-05-05T21:46:23.115Z,95758.06
2023-05-05T21:48:50.167Z,95752.03
2023-05-05T21:51:17.551Z,95744.69
2023-05-05T21:53:44.508Z,95744.13
2023-05-05T21:56:11.495Z,95740.28
2023-05-05T21:58:38.411Z,95740.59
2023-05-05T22:01:05.551Z,95735.94
2023-05-05T22:03:34.368Z,95725.88
2023-05-05T22:06:01.491Z,95736.84
2023-05-05T22:08:28.418Z,95745.56
2023-05-05T22:10:55.281Z,95748.34
2023-05-05T22:13:22.354Z,95755.44
2023-05-05T22:15:49.354Z,95750.53
2023-05-05T22:18:16.317Z,95741.78
2023-05-05T22:20:44.169Z,95751.28
2023-05-05T22:23:10.915Z,95740.88
2023-05-05T22:25:37.696Z,95756.16
2023-05-05T22:28:05.003Z,95762.16
2023-05-05T22:30:32.035Z,95767.34
2023-05-05T22:32:58.931Z,95776.06
2023-05-05T22:35:25.786Z,95770.59
2023-05-05T22:37:52.746Z,95786.38
2023-05-05T22:40:19.529Z,95787.75
2023-05-05T22:42:46.304Z,95785.31
2023-05-05T22:45:13.909Z,95780.44
2023-05-05T22:47:41.162Z,95759.47
2023-05-05T22:50:09.104Z,95755.41
2023-05-05T22:52:36.527Z,95746.16
2023-05-05T22:55:03.638Z,95745.06
2023-05-05T22:57:30.592Z,95746.38
2023-05-05T22:59:57.651Z,95744.75
2023-05-05T23:02:26.840Z,95743.66
2023-05-05T23:04:53.876Z,95747.75
2023-05-05T23:07:20.977Z,95746.63
2023-05-05T23:09:48.117Z,95752.66
2023-05-05T23:12:15.006Z,95740.06
2023-05-05T23:14:42.025Z,95739.53
2023-05-05T23:17:08.835Z,95755.88
2023-05-05T23:19:36.380Z,95765.13
2023-05-05T23:22:03.784Z,95769.75
2023-05-05T23:24:31.171Z,95774.94
2023-05-05T23:27:04.336Z,95766.81
2023-05-05T23:29:31.460Z,95766.88
2023-05-05T23:31:58.451Z,95763.91
2023-05-05T23:34:26.084Z,95763.09
2023-05-05T23:36:53.061Z,95759.56
2023-05-05T23:39:19.941Z,95756.84
2023-05-05T23:41:46.798Z,95751.69
2023-05-05T23:44:13.678Z,95742.41
2023-05-05T23:46:40.761Z,95733.97
2023-05-05T23:49:07.592Z,95737.50
2023-05-05T23:51:34.455Z,95726.63
2023-05-05T23:54:01.513Z,95731.78
2023-05-05T23:56:28.299Z,95735.88
2023-05-05T23:58:55.196Z,95732.88
